sensor_id;sensor_type;location;lat;lon;timestamp;P1;durP1;ratioP1;P2;durP2;ratioP2
67965;SDS011;54749;47.850;9.002;2022-12-05T00:01:14;38.28;;;11.52;;
67965;SDS011;54749;47.850;9.002;2022-12-05T00:03:45;35.22;;;12.10;;
67965;SDS011;54749;47.850;9.002;2022-12-05T00:06:13;33.60;;;10.30;;
67965;SDS011;54749;47.850;9.002;2022-12-05T00:08:41;39.40;;;12.90;;
67965;SDS011;54749;47.850;9.002;2022-12-05T00:11:12;54.72;;;17.35;;
67965;SDS011;54749;47.850;9.002;2022-12-05T00:13:44;54.08;;;18.70;;
67965;SDS011;54749;47.850;9.002;2022-12-05T00:16:12;44.45;;;14.73;;
67965;SDS011;54749;47.850;9.002;2022-12-05T00:18:41;38.50;;;12.83;;
67965;SDS011;54749;47.850;9.002;2022-12-05T00:21:12;38.15;;;13.55;;
67965;SDS011;54749;47.850;9.002;2022-12-05T00:23:44;37.67;;;12.00;;
67965;SDS011;54749;47.850;9.002;2022-12-05T00:26:11;34.45;;;12.23;;
67965;SDS011;54749;47.850;9.002;2022-12-05T00:28:39;33.25;;;11.32;;
67965;SDS011;54749;47.850;9.002;2022-12-05T00:31:07;29.13;;;10.03;;
67965;SDS011;54749;47.850;9.002;2022-12-05T00:33:41;34.00;;;13.00;;
67965;SDS011;54749;47.850;9.002;2022-12-05T00:36:10;38.33;;;13.15;;
67965;SDS011;54749;47.850;9.002;2022-12-05T00:38:39;35.33;;;12.65;;
67965;SDS011;54749;47.850;9.002;2022-12-05T00:41:12;38.83;;;12.90;;
67965;SDS011;54749;47.850;9.002;2022-12-05T00:43:41;32.87;;;11.00;;
67965;SDS011;54749;47.850;9.002;2022-12-05T00:46:08;27.23;;;9.40;;
67965;SDS011;54749;47.850;9.002;2022-12-05T00:48:37;31.05;;;9.32;;
67965;SDS011;54749;47.850;9.002;2022-12-05T00:51:06;45.53;;;15.20;;
67965;SDS011;54749;47.850;9.002;2022-12-05T00:53:35;181.98;;;45.05;;
67965;SDS011;54749;47.850;9.002;2022-12-05T00:56:03;96.30;;;25.87;;
67965;SDS011;54749;47.850;9.002;2022-12-05T00:58:31;60.25;;;18.25;;
67965;SDS011;54749;47.850;9.002;2022-12-05T01:01:32;47.17;;;15.25;;
67965;SDS011;54749;47.850;9.002;2022-12-05T01:03:54;30.35;;;10.50;;
67965;SDS011;54749;47.850;9.002;2022-12-05T01:06:22;37.33;;;11.23;;
67965;SDS011;54749;47.850;9.002;2022-12-05T01:08:51;27.33;;;9.07;;
67965;SDS011;54749;47.850;9.002;2022-12-05T01:11:20;27.80;;;9.88;;
67965;SDS011;54749;47.850;9.002;2022-12-05T01:13:47;27.35;;;8.93;;
67965;SDS011;54749;47.850;9.002;2022-12-05T01:16:16;27.83;;;9.50;;
67965;SDS011;54749;47.850;9.002;2022-12-05T01:18:51;33.47;;;10.80;;
67965;SDS011;54749;47.850;9.002;2022-12-05T01:21:18;33.57;;;11.60;;
67965;SDS011;54749;47.850;9.002;2022-12-05T01:23:46;25.98;;;9.10;;
67965;SDS011;54749;47.850;9.002;2022-12-05T01:26:14;31.83;;;10.52;;
67965;SDS011;54749;47.850;9.002;2022-12-05T01:28:42;34.28;;;11.40;;
67965;SDS011;54749;47.850;9.002;2022-12-05T01:31:31;30.25;;;10.00;;
67965;SDS011;54749;47.850;9.002;2022-12-05T01:33:59;33.50;;;11.27;;
67965;SDS011;54749;47.850;9.002;2022-12-05T01:36:28;33.92;;;10.20;;
67965;SDS011;54749;47.850;9.002;2022-12-05T01:38:55;34.75;;;9.68;;
67965;SDS011;54749;47.850;9.002;2022-12-05T01:41:24;30.40;;;8.98;;
67965;SDS011;54749;47.850;9.002;2022-12-05T01:46:26;46.70;;;12.03;;
67965;SDS011;54749;47.850;9.002;2022-12-05T01:48:57;33.78;;;9.25;;
67965;SDS011;54749;47.850;9.002;2022-12-05T01:51:27;30.80;;;9.82;;
67965;SDS011;54749;47.850;9.002;2022-12-05T01:53:55;32.10;;;9.32;;
67965;SDS011;54749;47.850;9.002;2022-12-05T01:56:22;34.85;;;10.88;;
67965;SDS011;54749;47.850;9.002;2022-12-05T01:58:49;37.17;;;10.00;;
67965;SDS011;54749;47.850;9.002;2022-12-05T02:01:17;40.05;;;12.23;;
67965;SDS011;54749;47.850;9.002;2022-12-05T02:03:46;46.03;;;12.52;;
67965;SDS011;54749;47.850;9.002;2022-12-05T02:06:17;30.80;;;9.68;;
67965;SDS011;54749;47.850;9.002;2022-12-05T02:08:44;31.90;;;10.20;;
67965;SDS011;54749;47.850;9.002;2022-12-05T02:11:12;32.67;;;9.30;;
67965;SDS011;54749;47.850;9.002;2022-12-05T02:13:46;32.92;;;10.23;;
67965;SDS011;54749;47.850;9.002;2022-12-05T02:22:22;29.80;;;8.65;;
67965;SDS011;54749;47.850;9.002;2022-12-05T02:30:53;33.08;;;9.43;;
67965;SDS011;54749;47.850;9.002;2022-12-05T02:33:32;33.97;;;10.05;;
67965;SDS011;54749;47.850;9.002;2022-12-05T02:36:08;42.70;;;11.55;;
67965;SDS011;54749;47.850;9.002;2022-12-05T02:38:40;38.93;;;10.33;;
67965;SDS011;54749;47.850;9.002;2022-12-05T02:41:31;30.98;;;9.20;;
67965;SDS011;54749;47.850;9.002;2022-12-05T02:44:03;28.40;;;9.27;;
67965;SDS011;54749;47.850;9.002;2022-12-05T02:46:34;31.08;;;8.48;;
67965;SDS011;54749;47.850;9.002;2022-12-05T02:49:07;29.77;;;9.18;;
67965;SDS011;54749;47.850;9.002;2022-12-05T02:51:38;25.63;;;7.47;;
67965;SDS011;54749;47.850;9.002;2022-12-05T02:54:12;26.83;;;7.80;;
67965;SDS011;54749;47.850;9.002;2022-12-05T02:56:44;25.60;;;7.50;;
67965;SDS011;54749;47.850;9.002;2022-12-05T02:59:12;30.58;;;8.65;;
67965;SDS011;54749;47.850;9.002;2022-12-05T03:01:47;33.03;;;10.57;;
67965;SDS011;54749;47.850;9.002;2022-12-05T03:04:15;30.03;;;9.00;;
67965;SDS011;54749;47.850;9.002;2022-12-05T03:06:54;25.40;;;8.32;;
67965;SDS011;54749;47.850;9.002;2022-12-05T03:12:24;31.08;;;8.65;;
67965;SDS011;54749;47.850;9.002;2022-12-05T03:17:33;31.67;;;10.10;;
67965;SDS011;54749;47.850;9.002;2022-12-05T03:20:08;34.08;;;10.88;;
67965;SDS011;54749;47.850;9.002;2022-12-05T03:22:42;28.73;;;8.45;;
67965;SDS011;54749;47.850;9.002;2022-12-05T03:25:15;27.85;;;9.23;;
67965;SDS011;54749;47.850;9.002;2022-12-05T03:27:49;28.52;;;8.93;;
67965;SDS011;54749;47.850;9.002;2022-12-05T03:30:20;26.50;;;8.17;;
67965;SDS011;54749;47.850;9.002;2022-12-05T03:35:53;25.40;;;8.43;;
67965;SDS011;54749;47.850;9.002;2022-12-05T03:38:38;23.70;;;8.60;;
67965;SDS011;54749;47.850;9.002;2022-12-05T03:43:54;28.83;;;9.83;;
67965;SDS011;54749;47.850;9.002;2022-12-05T03:49:02;29.55;;;9.50;;
67965;SDS011;54749;47.850;9.002;2022-12-05T03:51:36;27.88;;;8.88;;
67965;SDS011;54749;47.850;9.002;2022-12-05T03:54:16;26.35;;;8.70;;
67965;SDS011;54749;47.850;9.002;2022-12-05T03:56:57;23.30;;;7.20;;
67965;SDS011;54749;47.850;9.002;2022-12-05T03:59:34;22.92;;;7.25;;
67965;SDS011;54749;47.850;9.002;2022-12-05T04:02:07;23.13;;;7.70;;
67965;SDS011;54749;47.850;9.002;2022-12-05T04:04:46;23.88;;;7.28;;
67965;SDS011;54749;47.850;9.002;2022-12-05T04:07:18;26.10;;;7.50;;
67965;SDS011;54749;47.850;9.002;2022-12-05T04:09:48;21.63;;;7.30;;
67965;SDS011;54749;47.850;9.002;2022-12-05T04:12:22;21.02;;;7.30;;
67965;SDS011;54749;47.850;9.002;2022-12-05T04:14:54;29.98;;;10.85;;
67965;SDS011;54749;47.850;9.002;2022-12-05T04:17:29;30.88;;;9.80;;
67965;SDS011;54749;47.850;9.002;2022-12-05T04:23:08;26.73;;;9.10;;
67965;SDS011;54749;47.850;9.002;2022-12-05T04:25:36;31.33;;;9.52;;
67965;SDS011;54749;47.850;9.002;2022-12-05T04:28:27;25.48;;;7.97;;
67965;SDS011;54749;47.850;9.002;2022-12-05T04:33:33;26.73;;;8.60;;
67965;SDS011;54749;47.850;9.002;2022-12-05T04:36:11;28.03;;;8.60;;
67965;SDS011;54749;47.850;9.002;2022-12-05T04:38:51;28.77;;;9.82;;
67965;SDS011;54749;47.850;9.002;2022-12-05T04:41:25;27.60;;;8.77;;
67965;SDS011;54749;47.850;9.002;2022-12-05T04:43:55;26.63;;;7.82;;
67965;SDS011;54749;47.850;9.002;2022-12-05T04:46:27;25.75;;;8.30;;
67965;SDS011;54749;47.850;9.002;2022-12-05T04:48:55;22.77;;;8.03;;
67965;SDS011;54749;47.850;9.002;2022-12-05T04:51:26;25.30;;;8.07;;
67965;SDS011;54749;47.850;9.002;2022-12-05T04:53:59;28.67;;;8.65;;
67965;SDS011;54749;47.850;9.002;2022-12-05T04:56:30;20.63;;;6.80;;
67965;SDS011;54749;47.850;9.002;2022-12-05T04:59:00;24.88;;;8.52;;
67965;SDS011;54749;47.850;9.002;2022-12-05T05:01:29;20.93;;;7.40;;
67965;SDS011;54749;47.850;9.002;2022-12-05T05:04:16;26.73;;;8.43;;
67965;SDS011;54749;47.850;9.002;2022-12-05T05:06:46;25.00;;;7.75;;
67965;SDS011;54749;47.850;9.002;2022-12-05T05:09:13;24.30;;;7.65;;
67965;SDS011;54749;47.850;9.002;2022-12-05T05:11:40;21.83;;;7.60;;
67965;SDS011;54749;47.850;9.002;2022-12-05T05:14:07;19.83;;;7.20;;
67965;SDS011;54749;47.850;9.002;2022-12-05T05:16:35;28.25;;;8.73;;
67965;SDS011;54749;47.850;9.002;2022-12-05T05:19:04;32.97;;;10.60;;
67965;SDS011;54749;47.850;9.002;2022-12-05T05:21:33;30.75;;;10.45;;
67965;SDS011;54749;47.850;9.002;2022-12-05T05:24:01;27.13;;;9.60;;
67965;SDS011;54749;47.850;9.002;2022-12-05T05:26:29;32.30;;;11.30;;
67965;SDS011;54749;47.850;9.002;2022-12-05T05:28:59;27.95;;;9.32;;
67965;SDS011;54749;47.850;9.002;2022-12-05T05:31:26;24.45;;;8.57;;
67965;SDS011;54749;47.850;9.002;2022-12-05T05:33:54;30.27;;;10.20;;
67965;SDS011;54749;47.850;9.002;2022-12-05T05:36:22;29.33;;;9.35;;
67965;SDS011;54749;47.850;9.002;2022-12-05T05:38:52;25.40;;;8.63;;
67965;SDS011;54749;47.850;9.002;2022-12-05T05:41:22;22.85;;;7.75;;
67965;SDS011;54749;47.850;9.002;2022-12-05T05:43:50;25.00;;;7.72;;
67965;SDS011;54749;47.850;9.002;2022-12-05T05:46:19;34.30;;;10.48;;
67965;SDS011;54749;47.850;9.002;2022-12-05T05:48:48;33.88;;;9.93;;
67965;SDS011;54749;47.850;9.002;2022-12-05T05:51:16;26.40;;;9.57;;
67965;SDS011;54749;47.850;9.002;2022-12-05T05:53:43;25.58;;;8.50;;
67965;SDS011;54749;47.850;9.002;2022-12-05T05:56:12;23.52;;;8.18;;
67965;SDS011;54749;47.850;9.002;2022-12-05T05:58:47;27.40;;;8.95;;
67965;SDS011;54749;47.850;9.002;2022-12-05T06:01:20;24.42;;;7.82;;
67965;SDS011;54749;47.850;9.002;2022-12-05T06:03:47;26.60;;;8.27;;
67965;SDS011;54749;47.850;9.002;2022-12-05T06:06:16;29.83;;;10.15;;
67965;SDS011;54749;47.850;9.002;2022-12-05T06:08:43;25.90;;;9.30;;
67965;SDS011;54749;47.850;9.002;2022-12-05T06:11:15;26.77;;;9.32;;
67965;SDS011;54749;47.850;9.002;2022-12-05T06:13:54;29.38;;;8.98;;
67965;SDS011;54749;47.850;9.002;2022-12-05T06:16:22;24.47;;;8.90;;
67965;SDS011;54749;47.850;9.002;2022-12-05T06:18:50;26.67;;;9.02;;
67965;SDS011;54749;47.850;9.002;2022-12-05T06:21:18;33.55;;;10.82;;
67965;SDS011;54749;47.850;9.002;2022-12-05T06:23:45;29.35;;;10.23;;
67965;SDS011;54749;47.850;9.002;2022-12-05T06:26:12;28.48;;;10.30;;
67965;SDS011;54749;47.850;9.002;2022-12-05T06:28:45;25.13;;;8.53;;
67965;SDS011;54749;47.850;9.002;2022-12-05T06:31:16;26.33;;;7.93;;
67965;SDS011;54749;47.850;9.002;2022-12-05T06:33:46;22.45;;;7.68;;
67965;SDS011;54749;47.850;9.002;2022-12-05T06:36:14;22.35;;;7.47;;
67965;SDS011;54749;47.850;9.002;2022-12-05T06:38:43;23.52;;;8.40;;
67965;SDS011;54749;47.850;9.002;2022-12-05T06:41:11;42.43;;;14.50;;
67965;SDS011;54749;47.850;9.002;2022-12-05T06:43:41;40.05;;;13.98;;
67965;SDS011;54749;47.850;9.002;2022-12-05T06:46:09;36.30;;;12.90;;
67965;SDS011;54749;47.850;9.002;2022-12-05T06:48:37;28.58;;;10.00;;
67965;SDS011;54749;47.850;9.002;2022-12-05T06:51:04;30.13;;;9.75;;
67965;SDS011;54749;47.850;9.002;2022-12-05T06:53:35;25.73;;;8.47;;
67965;SDS011;54749;47.850;9.002;2022-12-05T06:56:03;25.73;;;8.55;;
67965;SDS011;54749;47.850;9.002;2022-12-05T06:58:32;29.00;;;8.82;;
67965;SDS011;54749;47.850;9.002;2022-12-05T07:00:59;34.15;;;10.18;;
67965;SDS011;54749;47.850;9.002;2022-12-05T07:03:47;27.55;;;10.05;;
67965;SDS011;54749;47.850;9.002;2022-12-05T07:06:15;35.20;;;12.10;;
67965;SDS011;54749;47.850;9.002;2022-12-05T07:08:42;33.55;;;10.70;;
67965;SDS011;54749;47.850;9.002;2022-12-05T07:11:10;30.05;;;10.20;;
67965;SDS011;54749;47.850;9.002;2022-12-05T07:13:37;40.58;;;14.40;;
67965;SDS011;54749;47.850;9.002;2022-12-05T07:16:04;31.98;;;11.55;;
67965;SDS011;54749;47.850;9.002;2022-12-05T07:18:33;31.53;;;9.90;;
67965;SDS011;54749;47.850;9.002;2022-12-05T07:21:02;39.85;;;13.50;;
67965;SDS011;54749;47.850;9.002;2022-12-05T07:23:43;32.63;;;11.35;;
67965;SDS011;54749;47.850;9.002;2022-12-05T07:26:12;40.97;;;14.50;;
67965;SDS011;54749;47.850;9.002;2022-12-05T07:28:41;32.47;;;11.48;;
67965;SDS011;54749;47.850;9.002;2022-12-05T07:31:09;33.97;;;10.43;;
67965;SDS011;54749;47.850;9.002;2022-12-05T07:33:38;34.78;;;10.73;;
67965;SDS011;54749;47.850;9.002;2022-12-05T07:36:06;36.83;;;12.00;;
67965;SDS011;54749;47.850;9.002;2022-12-05T07:38:35;37.03;;;12.30;;
67965;SDS011;54749;47.850;9.002;2022-12-05T07:41:06;46.50;;;15.10;;
67965;SDS011;54749;47.850;9.002;2022-12-05T07:43:39;49.80;;;17.93;;
67965;SDS011;54749;47.850;9.002;2022-12-05T07:46:07;39.67;;;15.48;;
67965;SDS011;54749;47.850;9.002;2022-12-05T07:48:37;32.10;;;12.05;;
67965;SDS011;54749;47.850;9.002;2022-12-05T07:51:05;31.30;;;11.63;;
67965;SDS011;54749;47.850;9.002;2022-12-05T07:53:34;32.85;;;11.82;;
67965;SDS011;54749;47.850;9.002;2022-12-05T07:56:02;34.30;;;11.70;;
67965;SDS011;54749;47.850;9.002;2022-12-05T07:58:31;28.25;;;10.68;;
67965;SDS011;54749;47.850;9.002;2022-12-05T08:01:06;27.92;;;9.52;;
67965;SDS011;54749;47.850;9.002;2022-12-05T08:03:37;27.77;;;10.32;;
67965;SDS011;54749;47.850;9.002;2022-12-05T08:06:08;23.48;;;8.57;;
67965;SDS011;54749;47.850;9.002;2022-12-05T08:08:36;24.90;;;8.87;;
67965;SDS011;54749;47.850;9.002;2022-12-05T08:11:05;20.08;;;6.90;;
67965;SDS011;54749;47.850;9.002;2022-12-05T08:13:34;24.15;;;7.90;;
67965;SDS011;54749;47.850;9.002;2022-12-05T08:16:02;24.45;;;8.52;;
67965;SDS011;54749;47.850;9.002;2022-12-05T08:18:30;22.58;;;7.57;;
67965;SDS011;54749;47.850;9.002;2022-12-05T08:21:07;25.33;;;8.17;;
67965;SDS011;54749;47.850;9.002;2022-12-05T08:23:39;23.27;;;8.63;;
67965;SDS011;54749;47.850;9.002;2022-12-05T08:26:10;23.42;;;8.80;;
67965;SDS011;54749;47.850;9.002;2022-12-05T08:28:39;26.00;;;9.10;;
67965;SDS011;54749;47.850;9.002;2022-12-05T08:31:15;21.52;;;8.77;;
67965;SDS011;54749;47.850;9.002;2022-12-05T08:33:43;22.07;;;8.10;;
67965;SDS011;54749;47.850;9.002;2022-12-05T08:36:11;27.25;;;12.40;;
67965;SDS011;54749;47.850;9.002;2022-12-05T08:38:41;25.40;;;9.85;;
67965;SDS011;54749;47.850;9.002;2022-12-05T08:41:09;22.30;;;8.85;;
67965;SDS011;54749;47.850;9.002;2022-12-05T08:43:39;22.30;;;9.70;;
67965;SDS011;54749;47.850;9.002;2022-12-05T08:46:07;23.10;;;9.70;;
67965;SDS011;54749;47.850;9.002;2022-12-05T08:48:34;24.25;;;11.05;;
67965;SDS011;54749;47.850;9.002;2022-12-05T08:51:05;21.73;;;10.20;;
67965;SDS011;54749;47.850;9.002;2022-12-05T08:53:36;24.00;;;9.40;;
67965;SDS011;54749;47.850;9.002;2022-12-05T08:56:10;29.63;;;11.23;;
67965;SDS011;54749;47.850;9.002;2022-12-05T08:58:37;23.80;;;8.93;;
67965;SDS011;54749;47.850;9.002;2022-12-05T09:01:09;24.17;;;8.75;;
67965;SDS011;54749;47.850;9.002;2022-12-05T09:03:44;19.30;;;7.38;;
67965;SDS011;54749;47.850;9.002;2022-12-05T09:06:15;16.40;;;6.13;;
67965;SDS011;54749;47.850;9.002;2022-12-05T09:08:43;17.38;;;6.53;;
67965;SDS011;54749;47.850;9.002;2022-12-05T09:11:11;20.23;;;6.77;;
67965;SDS011;54749;47.850;9.002;2022-12-05T09:13:46;17.05;;;6.43;;
67965;SDS011;54749;47.850;9.002;2022-12-05T09:16:18;12.30;;;4.85;;
67965;SDS011;54749;47.850;9.002;2022-12-05T09:18:46;9.40;;;3.80;;
67965;SDS011;54749;47.850;9.002;2022-12-05T09:21:15;9.48;;;3.70;;
67965;SDS011;54749;47.850;9.002;2022-12-05T09:23:44;11.00;;;4.17;;
67965;SDS011;54749;47.850;9.002;2022-12-05T09:26:12;10.85;;;4.15;;
67965;SDS011;54749;47.850;9.002;2022-12-05T09:28:41;9.25;;;3.83;;
67965;SDS011;54749;47.850;9.002;2022-12-05T09:31:10;9.32;;;3.60;;
67965;SDS011;54749;47.850;9.002;2022-12-05T09:33:49;11.90;;;4.32;;
67965;SDS011;54749;47.850;9.002;2022-12-05T09:36:20;13.10;;;4.50;;
67965;SDS011;54749;47.850;9.002;2022-12-05T09:38:52;12.32;;;4.40;;
67965;SDS011;54749;47.850;9.002;2022-12-05T09:44:19;9.35;;;3.75;;
67965;SDS011;54749;47.850;9.002;2022-12-05T09:46:58;7.97;;;3.10;;
67965;SDS011;54749;47.850;9.002;2022-12-05T09:49:28;11.77;;;4.40;;
67965;SDS011;54749;47.850;9.002;2022-12-05T09:51:58;8.05;;;3.40;;
67965;SDS011;54749;47.850;9.002;2022-12-05T09:54:26;8.48;;;3.45;;
67965;SDS011;54749;47.850;9.002;2022-12-05T09:56:53;6.45;;;2.78;;
67965;SDS011;54749;47.850;9.002;2022-12-05T09:59:20;9.52;;;3.63;;
67965;SDS011;54749;47.850;9.002;2022-12-05T10:04:25;8.80;;;3.40;;
67965;SDS011;54749;47.850;9.002;2022-12-05T10:07:06;8.02;;;3.20;;
67965;SDS011;54749;47.850;9.002;2022-12-05T10:10:02;7.93;;;3.08;;
67965;SDS011;54749;47.850;9.002;2022-12-05T10:12:57;8.10;;;2.88;;
67965;SDS011;54749;47.850;9.002;2022-12-05T10:15:32;6.23;;;2.37;;
67965;SDS011;54749;47.850;9.002;2022-12-05T10:18:23;7.38;;;2.38;;
67965;SDS011;54749;47.850;9.002;2022-12-05T10:20:56;5.75;;;2.40;;
67965;SDS011;54749;47.850;9.002;2022-12-05T10:23:30;8.23;;;2.97;;
67965;SDS011;54749;47.850;9.002;2022-12-05T10:26:24;9.55;;;4.03;;
67965;SDS011;54749;47.850;9.002;2022-12-05T10:29:08;7.10;;;3.10;;
67965;SDS011;54749;47.850;9.002;2022-12-05T10:31:37;6.20;;;2.30;;
67965;SDS011;54749;47.850;9.002;2022-12-05T10:34:22;13.98;;;4.50;;
67965;SDS011;54749;47.850;9.002;2022-12-05T10:36:57;10.30;;;3.90;;
67965;SDS011;54749;47.850;9.002;2022-12-05T10:39:31;8.93;;;3.13;;
67965;SDS011;54749;47.850;9.002;2022-12-05T10:41:58;7.27;;;2.90;;
67965;SDS011;54749;47.850;9.002;2022-12-05T10:44:25;9.27;;;3.42;;
67965;SDS011;54749;47.850;9.002;2022-12-05T10:46:51;6.72;;;2.70;;
67965;SDS011;54749;47.850;9.002;2022-12-05T10:49:19;6.80;;;2.70;;
67965;SDS011;54749;47.850;9.002;2022-12-05T10:51:47;7.13;;;2.95;;
67965;SDS011;54749;47.850;9.002;2022-12-05T10:54:21;8.33;;;3.03;;
67965;SDS011;54749;47.850;9.002;2022-12-05T10:56:51;7.18;;;2.70;;
67965;SDS011;54749;47.850;9.002;2022-12-05T10:59:21;8.63;;;2.80;;
67965;SDS011;54749;47.850;9.002;2022-12-05T11:01:54;9.18;;;3.05;;
67965;SDS011;54749;47.850;9.002;2022-12-05T11:04:42;10.05;;;3.50;;
67965;SDS011;54749;47.850;9.002;2022-12-05T11:10:33;7.93;;;2.55;;
67965;SDS011;54749;47.850;9.002;2022-12-05T11:13:13;7.90;;;2.60;;
67965;SDS011;54749;47.850;9.002;2022-12-05T11:15:45;7.22;;;2.75;;
67965;SDS011;54749;47.850;9.002;2022-12-05T11:20:51;6.93;;;2.50;;
67965;SDS011;54749;47.850;9.002;2022-12-05T11:23:24;6.03;;;2.17;;
67965;SDS011;54749;47.850;9.002;2022-12-05T11:25:54;5.72;;;2.20;;
67965;SDS011;54749;47.850;9.002;2022-12-05T11:28:23;5.85;;;2.40;;
67965;SDS011;54749;47.850;9.002;2022-12-05T11:33:39;7.97;;;2.87;;
67965;SDS011;54749;47.850;9.002;2022-12-05T11:36:16;6.05;;;2.60;;
67965;SDS011;54749;47.850;9.002;2022-12-05T11:38:47;6.72;;;2.88;;
67965;SDS011;54749;47.850;9.002;2022-12-05T11:47:36;8.60;;;3.10;;
67965;SDS011;54749;47.850;9.002;2022-12-05T11:55:42;8.68;;;3.60;;
67965;SDS011;54749;47.850;9.002;2022-12-05T12:06:28;11.18;;;3.40;;
67965;SDS011;54749;47.850;9.002;2022-12-05T12:09:11;7.53;;;3.05;;
67965;SDS011;54749;47.850;9.002;2022-12-05T12:14:48;8.30;;;3.23;;
67965;SDS011;54749;47.850;9.002;2022-12-05T12:20:21;6.88;;;3.10;;
67965;SDS011;54749;47.850;9.002;2022-12-05T12:25:43;8.00;;;3.70;;
67965;SDS011;54749;47.850;9.002;2022-12-05T12:33:57;7.20;;;3.50;;
67965;SDS011;54749;47.850;9.002;2022-12-05T12:47:35;10.38;;;4.63;;
67965;SDS011;54749;47.850;9.002;2022-12-05T12:50:34;12.15;;;5.68;;
67965;SDS011;54749;47.850;9.002;2022-12-05T12:56:01;15.87;;;7.03;;
67965;SDS011;54749;47.850;9.002;2022-12-05T12:58:46;12.10;;;4.35;;
67965;SDS011;54749;47.850;9.002;2022-12-05T13:04:06;9.18;;;3.90;;
67965;SDS011;54749;47.850;9.002;2022-12-05T13:09:48;19.77;;;7.70;;
67965;SDS011;54749;47.850;9.002;2022-12-05T13:12:23;13.65;;;5.82;;
67965;SDS011;54749;47.850;9.002;2022-12-05T13:14:58;10.85;;;4.50;;
67965;SDS011;54749;47.850;9.002;2022-12-05T13:17:30;7.60;;;3.70;;
67965;SDS011;54749;47.850;9.002;2022-12-05T13:19:58;7.90;;;3.50;;
67965;SDS011;54749;47.850;9.002;2022-12-05T13:22:26;8.97;;;3.87;;
67965;SDS011;54749;47.850;9.002;2022-12-05T13:24:54;7.13;;;3.30;;
67965;SDS011;54749;47.850;9.002;2022-12-05T13:27:23;9.07;;;3.97;;
67965;SDS011;54749;47.850;9.002;2022-12-05T13:29:57;8.82;;;4.10;;
67965;SDS011;54749;47.850;9.002;2022-12-05T13:32:28;10.27;;;5.28;;
67965;SDS011;54749;47.850;9.002;2022-12-05T13:35:08;10.00;;;4.50;;
67965;SDS011;54749;47.850;9.002;2022-12-05T13:37:35;13.35;;;5.82;;
67965;SDS011;54749;47.850;9.002;2022-12-05T13:40:28;11.10;;;4.78;;
67965;SDS011;54749;47.850;9.002;2022-12-05T13:43:21;8.48;;;3.90;;
67965;SDS011;54749;47.850;9.002;2022-12-05T13:46:17;8.55;;;3.80;;
67965;SDS011;54749;47.850;9.002;2022-12-05T13:48:45;7.40;;;3.67;;
67965;SDS011;54749;47.850;9.002;2022-12-05T13:51:32;6.88;;;3.13;;
67965;SDS011;54749;47.850;9.002;2022-12-05T13:54:04;7.82;;;3.60;;
67965;SDS011;54749;47.850;9.002;2022-12-05T13:57:42;8.25;;;3.80;;
67965;SDS011;54749;47.850;9.002;2022-12-05T14:12:57;11.07;;;5.43;;
67965;SDS011;54749;47.850;9.002;2022-12-05T14:15:29;9.80;;;4.30;;
67965;SDS011;54749;47.850;9.002;2022-12-05T14:18:08;8.75;;;3.97;;
67965;SDS011;54749;47.850;9.002;2022-12-05T14:26:14;14.88;;;6.38;;
67965;SDS011;54749;47.850;9.002;2022-12-05T14:34:27;13.52;;;5.45;;
67965;SDS011;54749;47.850;9.002;2022-12-05T14:36:57;15.52;;;6.15;;
67965;SDS011;54749;47.850;9.002;2022-12-05T14:41:56;9.37;;;4.17;;
67965;SDS011;54749;47.850;9.002;2022-12-05T14:44:25;8.48;;;3.70;;
67965;SDS011;54749;47.850;9.002;2022-12-05T14:46:58;9.13;;;4.20;;
67965;SDS011;54749;47.850;9.002;2022-12-05T14:49:32;10.50;;;4.80;;
67965;SDS011;54749;47.850;9.002;2022-12-05T14:52:18;8.93;;;4.10;;
67965;SDS011;54749;47.850;9.002;2022-12-05T14:54:48;13.13;;;6.07;;
67965;SDS011;54749;47.850;9.002;2022-12-05T14:57:17;11.50;;;4.90;;
67965;SDS011;54749;47.850;9.002;2022-12-05T14:59:49;12.38;;;5.90;;
67965;SDS011;54749;47.850;9.002;2022-12-05T15:02:21;14.80;;;5.85;;
67965;SDS011;54749;47.850;9.002;2022-12-05T15:04:55;16.45;;;6.53;;
67965;SDS011;54749;47.850;9.002;2022-12-05T15:07:32;12.10;;;4.93;;
67965;SDS011;54749;47.850;9.002;2022-12-05T15:15:35;8.15;;;3.35;;
67965;SDS011;54749;47.850;9.002;2022-12-05T15:20:57;8.00;;;3.23;;
67965;SDS011;54749;47.850;9.002;2022-12-05T15:39:49;8.80;;;4.03;;
67965;SDS011;54749;47.850;9.002;2022-12-05T15:42:38;9.20;;;3.65;;
67965;SDS011;54749;47.850;9.002;2022-12-05T15:47:45;8.53;;;3.67;;
67965;SDS011;54749;47.850;9.002;2022-12-05T15:53:03;22.45;;;10.80;;
67965;SDS011;54749;47.850;9.002;2022-12-05T15:55:54;19.58;;;8.07;;
67965;SDS011;54749;47.850;9.002;2022-12-05T15:58:28;16.33;;;6.90;;
67965;SDS011;54749;47.850;9.002;2022-12-05T16:01:03;15.20;;;6.20;;
67965;SDS011;54749;47.850;9.002;2022-12-05T16:06:44;12.98;;;5.32;;
67965;SDS011;54749;47.850;9.002;2022-12-05T16:09:15;11.43;;;5.00;;
67965;SDS011;54749;47.850;9.002;2022-12-05T16:12:22;12.30;;;5.68;;
67965;SDS011;54749;47.850;9.002;2022-12-05T16:15:01;11.57;;;4.88;;
67965;SDS011;54749;47.850;9.002;2022-12-05T16:17:41;9.37;;;4.23;;
67965;SDS011;54749;47.850;9.002;2022-12-05T16:22:44;11.13;;;4.55;;
67965;SDS011;54749;47.850;9.002;2022-12-05T16:25:15;11.30;;;4.53;;
67965;SDS011;54749;47.850;9.002;2022-12-05T16:28:15;10.57;;;5.13;;
67965;SDS011;54749;47.850;9.002;2022-12-05T16:30:54;14.73;;;4.63;;
67965;SDS011;54749;47.850;9.002;2022-12-05T16:33:28;12.43;;;4.40;;
67965;SDS011;54749;47.850;9.002;2022-12-05T16:36:06;10.57;;;4.57;;
67965;SDS011;54749;47.850;9.002;2022-12-05T16:38:38;10.82;;;4.70;;
67965;SDS011;54749;47.850;9.002;2022-12-05T16:41:06;8.75;;;4.10;;
67965;SDS011;54749;47.850;9.002;2022-12-05T16:48:41;17.48;;;8.85;;
67965;SDS011;54749;47.850;9.002;2022-12-05T16:53:45;15.68;;;6.72;;
67965;SDS011;54749;47.850;9.002;2022-12-05T16:58:46;14.70;;;6.65;;
67965;SDS011;54749;47.850;9.002;2022-12-05T17:01:14;14.43;;;6.00;;
67965;SDS011;54749;47.850;9.002;2022-12-05T17:03:43;12.35;;;5.90;;
67965;SDS011;54749;47.850;9.002;2022-12-05T17:06:11;14.70;;;6.32;;
67965;SDS011;54749;47.850;9.002;2022-12-05T17:08:39;12.47;;;5.10;;
67965;SDS011;54749;47.850;9.002;2022-12-05T17:11:16;10.85;;;4.65;;
67965;SDS011;54749;47.850;9.002;2022-12-05T17:13:47;15.55;;;6.47;;
67965;SDS011;54749;47.850;9.002;2022-12-05T17:16:15;17.38;;;7.30;;
67965;SDS011;54749;47.850;9.002;2022-12-05T17:18:43;21.48;;;9.45;;
67965;SDS011;54749;47.850;9.002;2022-12-05T17:21:14;27.30;;;12.90;;
67965;SDS011;54749;47.850;9.002;2022-12-05T17:23:43;19.90;;;8.98;;
67965;SDS011;54749;47.850;9.002;2022-12-05T17:26:17;20.08;;;8.18;;
67965;SDS011;54749;47.850;9.002;2022-12-05T17:28:46;15.93;;;6.97;;
67965;SDS011;54749;47.850;9.002;2022-12-05T17:31:16;15.00;;;6.88;;
67965;SDS011;54749;47.850;9.002;2022-12-05T17:33:45;13.60;;;5.80;;
67965;SDS011;54749;47.850;9.002;2022-12-05T17:36:14;12.50;;;5.40;;
67965;SDS011;54749;47.850;9.002;2022-12-05T17:38:41;17.58;;;7.65;;
67965;SDS011;54749;47.850;9.002;2022-12-05T17:41:15;22.98;;;9.30;;
67965;SDS011;54749;47.850;9.002;2022-12-05T17:43:44;20.63;;;8.65;;
67965;SDS011;54749;47.850;9.002;2022-12-05T17:46:13;23.33;;;9.03;;
67965;SDS011;54749;47.850;9.002;2022-12-05T17:48:42;24.80;;;11.02;;
67965;SDS011;54749;47.850;9.002;2022-12-05T17:51:09;20.65;;;9.02;;
67965;SDS011;54749;47.850;9.002;2022-12-05T17:53:40;19.50;;;8.45;;
67965;SDS011;54749;47.850;9.002;2022-12-05T17:56:08;18.45;;;8.05;;
67965;SDS011;54749;47.850;9.002;2022-12-05T17:58:35;21.23;;;9.20;;